createdAt,value
2018-04-13T00:01:21.303Z,53.17
2018-04-13T00:03:48.251Z,44.50
2018-04-13T00:06:15.280Z,42.93
2018-04-13T00:08:41.523Z,57.53
2018-04-13T00:11:08.404Z,58.17
2018-04-13T00:13:34.572Z,45.50
2018-04-13T00:16:00.792Z,44.97
2018-04-13T00:18:26.947Z,45.97
2018-04-13T00:20:53.927Z,51.53
2018-04-13T00:23:20.131Z,47.60
2018-04-13T00:25:47.144Z,48.90
2018-04-13T00:28:13.360Z,47.53
2018-04-13T00:30:39.575Z,47.50
2018-04-13T00:33:05.735Z,47.40
2018-04-13T00:35:31.976Z,46.13
2018-04-13T00:37:58.119Z,51.23
2018-04-13T00:40:25.072Z,46.83
2018-04-13T00:42:52.487Z,46.23
2018-04-13T00:45:18.691Z,49.40
2018-04-13T00:47:44.827Z,51.70
2018-04-13T00:50:10.996Z,44.97
2018-04-13T00:52:37.919Z,48.90
2018-04-13T00:55:04.068Z,46.63
2018-04-13T00:57:31.036Z,45.87
2018-04-13T00:59:59.216Z,43.70
2018-04-13T01:02:25.348Z,49.73
2018-04-13T01:04:51.519Z,42.40
2018-04-13T01:07:17.779Z,45.80
2018-04-13T01:09:43.971Z,40.67
2018-04-13T01:12:10.123Z,45.67
2018-04-13T01:14:37.099Z,49.37
2018-04-13T01:17:03.345Z,44.13
2018-04-13T01:19:29.567Z,46.30
2018-04-13T01:21:55.700Z,42.50
2018-04-13T01:24:21.855Z,50.70
2018-04-13T01:26:48.072Z,42.23
2018-04-13T01:29:14.227Z,46.50
2018-04-13T01:31:41.203Z,49.97
2018-04-13T01:34:07.426Z,44.40
2018-04-13T01:36:33.583Z,44.73
2018-04-13T01:38:59.820Z,45.50
2018-04-13T01:41:26.064Z,45.17
2018-04-13T01:43:52.307Z,41.40
2018-04-13T01:46:19.256Z,42.73
2018-04-13T01:48:46.237Z,41.70
2018-04-13T01:51:12.463Z,62.53
2018-04-13T01:53:38.703Z,43.53
2018-04-13T01:56:04.849Z,43.80
2018-04-13T01:58:31.000Z,40.00
2018-04-13T02:00:57.447Z,38.07
2018-04-13T02:03:24.383Z,39.40
2018-04-13T02:05:50.535Z,41.00
2018-04-13T02:08:16.679Z,40.33
2018-04-13T02:10:42.824Z,41.40
2018-04-13T02:13:09.054Z,43.87
2018-04-13T02:15:35.212Z,40.27
2018-04-13T02:18:01.464Z,36.27
2018-04-13T02:20:28.423Z,39.27
2018-04-13T02:22:54.681Z,48.60
2018-04-13T02:25:20.884Z,39.70
2018-04-13T02:27:47.023Z,44.10
2018-04-13T02:30:13.172Z,41.00
2018-04-13T02:32:39.315Z,38.13
2018-04-13T02:35:05.539Z,49.00
2018-04-13T02:37:31.701Z,44.40
2018-04-13T02:39:58.643Z,48.30
2018-04-13T02:42:25.603Z,42.90
2018-04-13T02:44:51.864Z,41.63
2018-04-13T02:47:18.079Z,36.60
2018-04-13T02:49:44.311Z,35.70
2018-04-13T02:52:10.493Z,37.33
2018-04-13T02:54:37.455Z,34.33
2018-04-13T02:57:03.679Z,41.63
2018-04-13T02:59:29.812Z,39.37
2018-04-13T03:01:55.968Z,43.23
2018-04-13T03:04:22.195Z,38.43
2018-04-13T03:06:48.347Z,37.47
2018-04-13T03:09:14.464Z,42.07
2018-04-13T03:11:42.415Z,40.03
2018-04-13T03:14:08.595Z,40.83
2018-04-13T03:16:35.587Z,38.03
2018-04-13T03:19:01.851Z,40.97
2018-04-13T03:21:28.042Z,39.47
2018-04-13T03:23:54.200Z,36.03
2018-04-13T03:26:20.327Z,42.73
2018-04-13T03:28:46.480Z,44.03
2018-04-13T03:31:13.418Z,37.60
2018-04-13T03:33:40.399Z,40.60
2018-04-13T03:36:06.528Z,41.93
2018-04-13T03:38:32.668Z,44.03
2018-04-13T03:40:58.812Z,42.73
2018-04-13T03:43:25.052Z,46.77
2018-04-13T03:45:51.212Z,47.67
2018-04-13T03:48:18.168Z,38.97
2018-04-13T03:50:44.418Z,43.27
2018-04-13T03:53:10.655Z,47.07
2018-04-13T03:55:36.883Z,44.47
2018-04-13T03:58:03.043Z,48.67
2018-04-13T04:00:29.283Z,50.87
2018-04-13T04:02:56.268Z,53.07
2018-04-13T04:05:23.200Z,56.00
2018-04-13T04:07:49.439Z,56.80
2018-04-13T04:10:15.671Z,55.60
2018-04-13T04:12:41.824Z,54.27
2018-04-13T04:15:08.062Z,50.47
2018-04-13T04:17:34.189Z,57.53
2018-04-13T04:20:12.457Z,49.67
2018-04-13T04:22:50.800Z,55.23
2018-04-13T04:28:20.617Z,52.10
2018-04-13T04:30:46.871Z,51.87
2018-04-13T04:33:13.084Z,63.00
2018-04-13T04:35:39.252Z,53.00
2018-04-13T04:38:06.228Z,56.27
2018-04-13T04:40:32.459Z,56.20
2018-04-13T04:42:58.675Z,60.87
2018-04-13T04:45:24.824Z,58.13
2018-04-13T04:47:50.980Z,59.93
2018-04-13T04:50:17.215Z,60.67
2018-04-13T04:52:43.468Z,59.97
2018-04-13T04:55:10.420Z,58.53
2018-04-13T04:57:37.364Z,71.03
2018-04-13T05:00:04.357Z,63.83
2018-04-13T05:02:31.301Z,69.00
2018-04-13T05:04:58.261Z,64.50
2018-04-13T05:07:24.512Z,63.60
2018-04-13T05:09:50.735Z,73.23
2018-04-13T05:12:18.415Z,69.93
2018-04-13T05:14:45.367Z,66.50
2018-04-13T05:17:12.342Z,70.23
2018-04-13T05:19:38.628Z,70.80
2018-04-13T05:22:05.539Z,62.90
2018-04-13T05:24:31.797Z,66.17
2018-04-13T05:26:58.038Z,67.37
2018-04-13T05:29:25.010Z,66.27
2018-04-13T05:31:51.215Z,65.17
2018-04-13T05:34:18.184Z,62.33
2018-04-13T05:36:44.356Z,64.13
2018-04-13T05:39:10.567Z,71.47
2018-04-13T05:41:36.811Z,67.43
2018-04-13T05:44:03.692Z,66.37
2018-04-13T05:46:30.652Z,71.30
2018-04-13T05:48:56.893Z,63.40
2018-04-13T05:51:23.105Z,60.10
2018-04-13T05:53:49.371Z,63.30
2018-04-13T05:56:16.367Z,58.07
2018-04-13T05:58:43.281Z,62.60
2018-04-13T06:01:09.517Z,64.10
2018-04-13T06:03:36.483Z,63.13
2018-04-13T06:06:03.469Z,63.37
2018-04-13T06:08:29.691Z,63.93
2018-04-13T06:10:55.912Z,57.87
2018-04-13T06:13:22.039Z,64.13
2018-04-13T06:15:48.220Z,62.60
2018-04-13T06:18:14.476Z,61.00
2018-04-13T06:20:40.687Z,63.20
2018-04-13T06:23:07.684Z,58.10
2018-04-13T06:25:33.888Z,59.60
2018-04-13T06:28:00.069Z,59.43
2018-04-13T06:30:26.220Z,66.20
2018-04-13T06:32:53.088Z,72.07
2018-04-13T06:35:19.225Z,53.80
2018-04-13T06:37:45.367Z,57.80
2018-04-13T06:40:12.284Z,59.67
2018-04-13T06:42:38.403Z,59.30
2018-04-13T06:45:04.560Z,63.43
2018-04-13T06:47:30.691Z,53.43
2018-04-13T06:49:56.866Z,60.70
2018-04-13T06:52:23.744Z,58.00
2018-04-13T06:54:49.878Z,69.03
2018-04-13T06:57:16.026Z,64.87
2018-04-13T06:59:42.176Z,63.03
2018-04-13T07:02:08.343Z,58.80
2018-04-13T07:04:34.474Z,63.10
2018-04-13T07:07:00.635Z,59.83
2018-04-13T07:09:26.769Z,54.87
2018-04-13T07:11:52.897Z,60.97
2018-04-13T07:14:20.424Z,48.87
2018-04-13T07:16:46.552Z,56.20
2018-04-13T07:19:12.706Z,57.50
2018-04-13T07:21:38.825Z,54.70
2018-04-13T07:24:04.956Z,54.13
2018-04-13T07:26:31.115Z,56.70
2018-04-13T07:28:57.977Z,52.87
2018-04-13T07:31:24.138Z,51.80
2018-04-13T07:33:50.276Z,50.33
2018-04-13T07:36:16.667Z,51.70
2018-04-13T07:38:42.548Z,49.80
2018-04-13T07:41:13.288Z,55.80
2018-04-13T07:43:40.183Z,49.63
2018-04-13T07:46:06.346Z,52.33
2018-04-13T07:48:32.477Z,44.57
2018-04-13T07:50:59.422Z,50.33
2018-04-13T07:53:25.496Z,52.77
2018-04-13T07:55:51.627Z,47.50
2018-04-13T07:58:17.764Z,49.60
2018-04-13T08:00:43.895Z,48.70
2018-04-13T08:03:10.031Z,47.03
2018-04-13T08:05:36.160Z,45.30
2018-04-13T08:08:02.299Z,48.07
2018-04-13T08:10:28.418Z,45.60
2018-04-13T08:12:54.566Z,43.50
2018-04-13T08:15:21.432Z,55.87
2018-04-13T08:17:47.567Z,44.03
2018-04-13T08:20:13.699Z,43.03
2018-04-13T08:22:39.823Z,43.60
2018-04-13T08:25:06.005Z,39.10
2018-04-13T08:27:32.906Z,36.13
2018-04-13T08:29:59.035Z,38.20
2018-04-13T08:32:25.167Z,35.27
2018-04-13T08:34:51.303Z,34.00
2018-04-13T08:37:17.439Z,41.47
2018-04-13T08:39:43.601Z,33.13
2018-04-13T08:42:10.508Z,34.23
2018-04-13T08:44:36.643Z,30.37
2018-04-13T08:47:02.782Z,31.63
2018-04-13T08:49:29.671Z,27.90
2018-04-13T08:51:55.803Z,31.67
2018-04-13T08:54:21.948Z,31.00
2018-04-13T08:56:48.076Z,34.00
2018-04-13T08:59:14.227Z,31.13
2018-04-13T09:01:41.083Z,31.87
2018-04-13T09:04:07.963Z,34.53
2018-04-13T09:06:34.150Z,34.50
2018-04-13T09:09:00.243Z,37.73
2018-04-13T09:11:26.387Z,36.60
2018-04-13T09:13:52.503Z,35.10
2018-04-13T09:16:18.643Z,36.27
2018-04-13T09:18:45.536Z,34.33
2018-04-13T09:21:11.651Z,39.00
2018-04-13T09:23:37.775Z,31.50
2018-04-13T09:26:03.920Z,34.40
2018-04-13T09:28:30.075Z,25.53
2018-04-13T09:30:56.243Z,30.47
2018-04-13T09:33:22.459Z,33.20
2018-04-13T09:35:49.377Z,31.60
2018-04-13T09:38:15.512Z,34.93
2018-04-13T09:40:41.708Z,32.37
2018-04-13T09:43:07.844Z,33.93
2018-04-13T09:45:33.976Z,28.73
2018-04-13T09:48:00.123Z,26.77
2018-04-13T09:50:27.013Z,28.53
2018-04-13T09:52:53.167Z,33.13
2018-04-13T09:55:19.291Z,32.20
2018-04-13T09:57:45.445Z,34.03
2018-04-13T10:00:12.340Z,31.37
2018-04-13T10:02:38.476Z,24.07
2018-04-13T10:05:11.377Z,33.03
2018-04-13T10:07:37.547Z,26.63
2018-04-13T10:10:03.735Z,32.60
2018-04-13T10:12:29.855Z,26.93
2018-04-13T10:14:56.007Z,20.70
2018-04-13T10:17:22.881Z,20.47
2018-04-13T10:19:49.011Z,30.83
2018-04-13T10:22:15.156Z,25.00
2018-04-13T10:24:41.311Z,27.00
2018-04-13T10:27:07.444Z,27.27
2018-04-13T10:29:33.603Z,19.90
2018-04-13T10:31:59.744Z,23.53
2018-04-13T10:34:25.868Z,19.20
2018-04-13T10:36:52.786Z,25.33
2018-04-13T10:39:19.676Z,22.13
2018-04-13T10:41:45.840Z,23.67
2018-04-13T10:44:11.968Z,20.83
2018-04-13T10:46:38.143Z,30.47
2018-04-13T10:49:04.277Z,18.30
2018-04-13T10:51:30.450Z,25.43
2018-04-13T10:53:56.583Z,20.83
2018-04-13T10:56:23.491Z,26.90
2018-04-13T10:58:49.643Z,25.50
2018-04-13T11:01:15.856Z,26.20
2018-04-13T11:03:42.024Z,21.30
2018-04-13T11:06:08.163Z,28.43
2018-04-13T11:08:34.336Z,26.07
2018-04-13T11:11:00.491Z,24.60
2018-04-13T11:13:27.764Z,24.87
2018-04-13T11:15:53.915Z,28.20
2018-04-13T11:18:20.074Z,30.13
2018-04-13T11:20:46.219Z,25.50
2018-04-13T11:23:13.092Z,17.27
2018-04-13T11:25:39.232Z,32.43
2018-04-13T11:28:05.347Z,17.93
2018-04-13T11:30:31.489Z,24.57
2018-04-13T11:32:57.633Z,24.00
2018-04-13T11:35:23.756Z,30.33
2018-04-13T11:37:49.879Z,20.60
2018-04-13T11:40:16.019Z,27.40
2018-04-13T11:42:42.194Z,27.60
2018-04-13T11:45:08.379Z,31.07
2018-04-13T11:47:34.521Z,21.93
2018-04-13T11:50:01.415Z,16.90
2018-04-13T11:52:27.559Z,22.57
2018-04-13T11:54:53.707Z,24.07
2018-04-13T11:57:19.827Z,29.30
2018-04-13T11:59:45.976Z,16.17
2018-04-13T12:02:12.872Z,22.60
2018-04-13T12:04:39.023Z,29.23
2018-04-13T12:07:05.177Z,18.03
2018-04-13T12:09:32.041Z,25.30
2018-04-13T12:11:58.180Z,21.50
2018-04-13T12:14:24.332Z,26.30
2018-04-13T12:16:50.478Z,21.13
2018-04-13T12:19:16.631Z,20.63
2018-04-13T12:21:43.504Z,23.90
2018-04-13T12:24:09.621Z,23.43
2018-04-13T12:26:35.791Z,26.67
2018-04-13T12:29:01.929Z,17.40
2018-04-13T12:31:28.095Z,25.90
2018-04-13T12:33:54.260Z,22.17
2018-04-13T12:36:20.400Z,18.13
2018-04-13T12:38:46.559Z,26.70
2018-04-13T12:41:13.471Z,21.67
2018-04-13T12:43:39.603Z,22.80
2018-04-13T12:46:06.495Z,18.80
2018-04-13T12:48:32.639Z,27.33
2018-04-13T12:50:58.799Z,20.50
2018-04-13T12:53:24.927Z,20.27
2018-04-13T12:55:51.080Z,31.43
2018-04-13T12:58:17.987Z,25.50
2018-04-13T13:00:44.115Z,15.47
2018-04-13T13:03:10.272Z,30.60
2018-04-13T13:05:37.176Z,23.97
2018-04-13T13:08:03.315Z,22.83
2018-04-13T13:10:29.468Z,24.97
2018-04-13T13:12:56.337Z,23.83
2018-04-13T13:15:22.534Z,30.00
2018-04-13T13:17:49.417Z,23.40
2018-04-13T13:20:15.571Z,23.00
2018-04-13T13:22:41.708Z,21.60
2018-04-13T13:25:07.868Z,27.90
2018-04-13T13:27:34.771Z,25.80
2018-04-13T13:30:00.926Z,23.90
2018-04-13T13:32:27.798Z,22.70
2018-04-13T13:34:53.936Z,19.67
2018-04-13T13:37:20.080Z,23.60
2018-04-13T13:39:46.224Z,20.20
2018-04-13T13:42:12.360Z,23.20
2018-04-13T13:44:38.575Z,23.40
2018-04-13T13:47:05.448Z,18.73
2018-04-13T13:49:32.332Z,21.33
2018-04-13T13:51:58.511Z,24.60
2018-04-13T13:54:25.371Z,22.93
2018-04-13T13:56:52.264Z,23.53
2018-04-13T13:59:18.380Z,18.13
2018-04-13T14:01:44.559Z,18.33
2018-04-13T14:04:11.424Z,23.37
2018-04-13T14:06:37.569Z,19.07
2018-04-13T14:09:04.588Z,21.33
2018-04-13T14:11:30.736Z,20.30
2018-04-13T14:13:56.871Z,20.57
2018-04-13T14:16:37.956Z,23.07
2018-04-13T14:19:04.090Z,16.73
2018-04-13T14:21:30.247Z,23.07
2018-04-13T14:23:56.377Z,24.90
2018-04-13T14:26:22.495Z,20.53
2018-04-13T14:28:48.644Z,27.07
2018-04-13T14:31:14.867Z,21.37
2018-04-13T14:33:41.743Z,19.87
2018-04-13T14:36:07.882Z,28.83
2018-04-13T14:38:34.752Z,21.73
2018-04-13T14:41:00.889Z,26.00
2018-04-13T14:43:27.784Z,25.67
2018-04-13T14:45:53.932Z,23.57
2018-04-13T14:48:20.101Z,26.53
2018-04-13T14:50:46.972Z,20.70
2018-04-13T14:53:13.096Z,30.30
2018-04-13T14:55:39.244Z,26.57
2018-04-13T14:58:05.428Z,28.10
2018-04-13T15:00:32.344Z,26.37
2018-04-13T15:02:58.491Z,27.33
2018-04-13T15:05:25.364Z,30.70
2018-04-13T15:07:51.576Z,24.37
2018-04-13T15:10:17.713Z,26.70
2018-04-13T15:12:43.845Z,24.37
2018-04-13T15:15:10.007Z,28.33
2018-04-13T15:17:36.165Z,28.40
2018-04-13T15:20:03.047Z,31.83
2018-04-13T15:22:29.199Z,27.30
2018-04-13T15:24:55.370Z,28.87
2018-04-13T15:27:21.580Z,31.63
2018-04-13T15:29:47.714Z,24.10
2018-04-13T15:32:14.595Z,30.43
2018-04-13T15:34:40.720Z,27.60
2018-04-13T15:37:06.892Z,23.33
2018-04-13T15:39:33.027Z,33.67
2018-04-13T15:41:59.175Z,35.87
2018-04-13T15:44:26.050Z,39.47
2018-04-13T15:46:52.211Z,37.97
2018-04-13T15:49:18.360Z,53.07
2018-04-13T15:51:45.259Z,38.43
2018-04-13T15:54:11.387Z,39.67
2018-04-13T15:56:37.552Z,44.00
2018-04-13T15:59:04.444Z,43.03
2018-04-13T16:01:30.591Z,47.93
2018-04-13T16:03:56.843Z,56.07
2018-04-13T16:06:22.980Z,51.20
2018-04-13T16:08:49.849Z,55.50
2018-04-13T16:11:15.998Z,55.50
2018-04-13T16:13:42.163Z,59.67
2018-04-13T16:16:08.308Z,59.57
2018-04-13T16:18:35.173Z,55.40
2018-04-13T16:21:01.331Z,59.73
2018-04-13T16:23:27.456Z,58.83
2018-04-13T16:25:53.647Z,65.63
2018-04-13T16:28:19.767Z,61.07
2018-04-13T16:30:46.640Z,64.50
2018-04-13T16:33:12.787Z,63.97
2018-04-13T16:35:38.930Z,57.87
2018-04-13T16:38:05.102Z,67.40
2018-04-13T16:40:31.252Z,71.97
2018-04-13T16:42:57.383Z,81.80
2018-04-13T16:45:23.555Z,79.43
2018-04-13T16:47:50.444Z,67.77
2018-04-13T16:50:16.608Z,75.97
2018-04-13T16:52:42.751Z,80.23
2018-04-13T16:55:09.629Z,78.07
2018-04-13T16:57:35.776Z,81.17
2018-04-13T17:00:01.984Z,83.87
2018-04-13T17:02:28.244Z,81.13
2018-04-13T17:04:54.483Z,92.20
2018-04-13T17:07:20.634Z,89.93
2018-04-13T17:09:47.526Z,79.90
2018-04-13T17:12:13.691Z,86.03
2018-04-13T17:14:39.824Z,82.80
2018-04-13T17:17:06.716Z,96.07
2018-04-13T17:19:32.864Z,95.13
2018-04-13T17:21:59.021Z,83.10
2018-04-13T17:24:25.903Z,93.33
2018-04-13T17:26:52.024Z,93.27
2018-04-13T17:29:18.214Z,97.63
2018-04-13T17:31:44.327Z,89.17
2018-04-13T17:34:11.299Z,100.43
2018-04-13T17:36:38.180Z,109.03
2018-04-13T17:39:04.354Z,95.77
2018-04-13T17:41:30.511Z,95.07
2018-04-13T17:43:56.636Z,117.97
2018-04-13T17:46:23.970Z,98.67
2018-04-13T17:48:50.844Z,111.20
2018-04-13T17:51:16.997Z,115.60
2018-04-13T17:53:43.131Z,123.67
2018-04-13T17:56:09.998Z,132.47
2018-04-13T17:58:36.260Z,132.57
2018-04-13T18:01:02.440Z,125.93
2018-04-13T18:03:28.699Z,134.67
2018-04-13T18:05:55.648Z,141.50
2018-04-13T18:08:22.549Z,133.57
2018-04-13T18:10:48.697Z,139.87
2018-04-13T18:13:14.828Z,143.37
2018-04-13T18:15:40.974Z,130.43
2018-04-13T18:18:07.872Z,131.13
2018-04-13T18:20:34.031Z,124.43
2018-04-13T18:23:00.924Z,113.77
2018-04-13T18:25:27.084Z,119.57
2018-04-13T18:27:53.212Z,122.80
2018-04-13T18:30:19.339Z,118.07
2018-04-13T18:32:45.484Z,115.60
2018-04-13T18:35:12.361Z,124.17
2018-04-13T18:37:38.511Z,106.37
2018-04-13T18:40:04.656Z,102.60
2018-04-13T18:42:30.820Z,109.93
2018-04-13T18:44:57.675Z,107.03
2018-04-13T18:47:23.832Z,103.70
2018-04-13T18:49:49.994Z,94.90
2018-04-13T18:52:16.891Z,102.07
2018-04-13T18:54:43.009Z,102.93
2018-04-13T18:57:09.140Z,101.43
2018-04-13T18:59:35.375Z,95.37
2018-04-13T19:02:02.594Z,95.43
2018-04-13T19:04:28.740Z,91.20
2018-04-13T19:06:54.930Z,90.47
2018-04-13T19:09:21.953Z,87.83
2018-04-13T19:11:48.099Z,87.27
2018-04-13T19:14:14.211Z,86.87
2018-04-13T19:16:42.208Z,90.83
2018-04-13T19:19:09.085Z,87.10
2018-04-13T19:21:35.211Z,79.57
2018-04-13T19:24:01.320Z,82.93
2018-04-13T19:26:27.468Z,78.40
2018-04-13T19:28:53.607Z,76.73
2018-04-13T19:31:19.776Z,73.80
2018-04-13T19:33:46.723Z,82.10
2018-04-13T19:36:13.619Z,73.97
2018-04-13T19:38:39.769Z,67.87
2018-04-13T19:41:05.976Z,59.30
2018-04-13T19:43:32.145Z,54.40
2018-04-13T19:45:59.021Z,53.43
2018-04-13T19:48:25.325Z,58.77
2018-04-13T19:50:52.216Z,56.57
2018-04-13T19:53:18.351Z,54.27
2018-04-13T19:55:44.531Z,50.80
2018-04-13T19:58:10.747Z,57.00
2018-04-13T20:00:37.696Z,60.00
2018-04-13T20:03:04.690Z,54.53
2018-04-13T20:05:31.572Z,64.07
2018-04-13T20:07:58.540Z,60.10
2018-04-13T20:10:24.728Z,58.87
2018-04-13T20:12:50.909Z,49.60
2018-04-13T20:15:27.065Z,53.63
2018-04-13T20:17:53.203Z,51.97
2018-04-13T20:20:19.392Z,53.43
2018-04-13T20:22:46.255Z,51.17
2018-04-13T20:25:12.383Z,53.20
2018-04-13T20:27:38.548Z,47.80
2018-04-13T20:30:04.745Z,49.87
2018-04-13T20:32:30.987Z,47.60
2018-04-13T20:34:57.108Z,65.67
2018-04-13T20:37:23.244Z,45.90
2018-04-13T20:39:49.397Z,48.03
2018-04-13T20:42:15.557Z,60.33
2018-04-13T20:44:42.431Z,50.57
2018-04-13T20:47:08.564Z,50.20
2018-04-13T20:49:34.679Z,48.10
2018-04-13T20:52:00.823Z,52.47
2018-04-13T20:54:26.963Z,48.57
2018-04-13T20:56:53.139Z,52.00
2018-04-13T20:59:19.380Z,58.10
2018-04-13T21:01:45.508Z,57.23
2018-04-13T21:04:11.640Z,40.87
2018-04-13T21:06:37.783Z,54.47
2018-04-13T21:09:03.955Z,54.13
2018-04-13T21:11:30.828Z,56.87
2018-04-13T21:13:56.958Z,61.77
2018-04-13T21:16:23.100Z,54.60
2018-04-13T21:18:49.243Z,67.83
2018-04-13T21:21:16.125Z,40.07
2018-04-13T21:23:43.043Z,44.20
2018-04-13T21:26:09.255Z,44.73
2018-04-13T21:28:35.383Z,39.80
2018-04-13T21:31:01.571Z,59.40
2018-04-13T21:33:27.768Z,63.90
2018-04-13T21:35:54.769Z,63.60
2018-04-13T21:38:21.692Z,62.63
2018-04-13T21:40:47.904Z,67.87
2018-04-13T21:43:14.808Z,66.10
2018-04-13T21:45:41.044Z,79.43
2018-04-13T21:48:07.358Z,86.77
2018-04-13T21:50:33.528Z,76.20
2018-04-13T21:53:00.498Z,96.10
2018-04-13T21:55:26.727Z,105.80
2018-04-13T21:57:52.879Z,131.23
2018-04-13T22:00:19.124Z,130.10
2018-04-13T22:02:45.360Z,142.23
2018-04-13T22:05:11.615Z,127.47
2018-04-13T22:07:38.569Z,123.67
2018-04-13T22:10:04.843Z,162.83
2018-04-13T22:12:43.560Z,208.67
2018-04-13T22:15:09.811Z,191.17
2018-04-13T22:17:36.024Z,225.23
2018-04-13T22:20:02.378Z,213.63
2018-04-13T22:22:28.642Z,217.23
2018-04-13T22:24:54.859Z,248.77
2018-04-13T22:27:21.806Z,209.80
2018-04-13T22:29:48.788Z,251.90
2018-04-13T22:32:15.015Z,238.67
2018-04-13T22:34:41.305Z,232.77
2018-04-13T22:37:07.535Z,281.90
2018-04-13T22:39:34.468Z,150.67
2018-04-13T22:42:02.343Z,268.83
2018-04-13T22:44:29.328Z,166.63
2018-04-13T22:46:55.559Z,308.80
2018-04-13T22:49:22.313Z,285.87
2018-04-13T22:51:48.544Z,300.37
2018-04-13T22:54:14.816Z,213.37
2018-04-13T22:56:41.767Z,49.57
2018-04-13T22:59:08.691Z,3.87
2018-04-13T23:01:34.870Z,0.60
2018-04-13T23:04:02.183Z,0.57
2018-04-13T23:06:29.082Z,4.00
2018-04-13T23:08:55.308Z,1.63
2018-04-13T23:11:21.486Z,1.07
2018-04-13T23:13:48.403Z,0.60
2018-04-13T23:16:16.124Z,0.60
2018-04-13T23:18:42.328Z,1.17
2018-04-13T23:21:08.467Z,0.50
2018-04-13T23:23:34.631Z,2.73
2018-04-13T23:26:00.852Z,0.60
2018-04-13T23:28:27.016Z,7.50
2018-04-13T23:30:53.231Z,2.13
2018-04-13T23:33:19.396Z,0.57
2018-04-13T23:35:45.631Z,0.50
2018-04-13T23:38:11.864Z,3.70
2018-04-13T23:40:38.040Z,0.50
2018-04-13T23:43:04.260Z,0.50
2018-04-13T23:45:30.500Z,1.23
2018-04-13T23:47:56.780Z,1.10
2018-04-13T23:50:23.007Z,0.50
2018-04-13T23:52:49.133Z,0.57
2018-04-13T23:55:15.377Z,1.63
2018-04-13T23:57:41.623Z,8.90
